To NAV CANADA Home Page Login to a new session Search on AWWS site Feedback and Comments Disclaimer Vers la page française équivalente Tips FAQ What's new on the site To the Forecasts and Observations / NOTAM section To "File a Flight Plan" website Publications and other links Update of the User's profile FIC Telephone Numbers My Weather Data Folder Route Weather Data Regional Weather Data Local Weather Data To the Forecasts and Observations / NOTAM section
Request Generated 05/23/2015 at 08:42:59 UTC . Weather information available at that time is displayed.

METAR/TAF

TALOYOAK/NU    

METAR CYYH 230800Z 27007KT 15SM VCFG FEW009 FEW020 SCT030 BKN080
BKN210 M09/M11 A2993 RMK ST1SC1SC2AC2CI1 ST TR CI TR VCFG - SW
SLP138=
METAR CYYH 230700Z VRB03KT 15SM FEW009 FEW018 FEW020 FEW100 SCT210
M07/M09 A2995 RMK SC1SC1SC1AC1CI1 SC TR SC TR SLP146=
METAR CYYH 230600Z 28009KT 15SM FEW018 BKN020 BKN100 M06/M09 A2996
RMK SC1SC4AC1 AC TR SLP149=

TAF AMD CYYH 230711Z 2307/2318 VRB03KT P6SM FEW008 FEW020 BKN100
TEMPO 2307/2309 BKN020
FM230900 25010KT P6SM SCT005 BKN012 BKN100 TEMPO 2309/2316 BKN005
BKN012 OVC100
BECMG 2313/2315 18015KT
FM231600 16012KT P6SM BKN020
RMK NXT FCST BY 231200Z=
Your time UTC time
Weather data provided by Environment Canada and NAV CANADA